createdAt,value
2019-02-11T00:00:16.675Z,88.30
2019-02-11T00:02:48.796Z,88.10
2019-02-11T00:05:19.643Z,87.70
2019-02-11T00:07:50.163Z,87.50
2019-02-11T00:10:20.477Z,87.40
2019-02-11T00:12:50.914Z,87.10
2019-02-11T00:15:21.398Z,87.10
2019-02-11T00:17:52.797Z,94.50
2019-02-11T00:20:23.355Z,86.80
2019-02-11T00:22:56.476Z,86.90
2019-02-11T00:25:26.810Z,94.50
2019-02-11T00:27:57.082Z,87.30
2019-02-11T00:30:27.419Z,94.90
2019-02-11T00:32:58.016Z,94.80
2019-02-11T00:35:28.446Z,87.40
2019-02-11T00:37:58.779Z,87.30
2019-02-11T00:40:28.901Z,87.30
2019-02-11T00:42:59.206Z,87.20
2019-02-11T00:45:29.446Z,87.10
2019-02-11T00:47:59.539Z,94.50
2019-02-11T00:50:29.668Z,94.40
2019-02-11T00:52:59.600Z,86.70
2019-02-11T00:55:31.278Z,86.50
2019-02-11T00:58:01.500Z,86.50
2019-02-11T01:00:31.579Z,86.40
2019-02-11T01:03:01.762Z,86.20
2019-02-11T01:05:32.154Z,86.20
2019-02-11T01:08:02.266Z,94.40
2019-02-11T01:10:32.586Z,94.30
2019-02-11T01:13:02.927Z,94.30
2019-02-11T01:15:34.218Z,94.30
2019-02-11T01:18:05.118Z,94.10
2019-02-11T01:20:35.459Z,94.40
2019-02-11T01:23:05.724Z,94.50
2019-02-11T01:25:36.160Z,94.30
2019-02-11T01:28:06.307Z,94.20
2019-02-11T01:30:36.259Z,94.40
2019-02-11T01:33:06.479Z,94.10
2019-02-11T01:35:36.641Z,94.60
2019-02-11T01:40:36.538Z,94.70
2019-02-11T01:43:06.582Z,94.60
2019-02-11T01:45:36.686Z,94.60
2019-02-11T01:48:06.878Z,94.70
2019-02-11T01:50:37.219Z,94.80
2019-02-11T01:53:09.243Z,94.70
2019-02-11T01:55:39.421Z,95.00
2019-02-11T01:58:09.529Z,95.00
2019-02-11T02:00:39.838Z,95.10
2019-02-11T02:03:09.878Z,95.40
2019-02-11T02:05:40.138Z,95.60
2019-02-11T02:08:10.288Z,95.70
2019-02-11T02:10:40.519Z,96.50
2019-02-11T02:13:10.863Z,96.70
2019-02-11T02:15:41.058Z,96.70
2019-02-11T02:18:12.178Z,97.20
2019-02-11T02:20:42.418Z,90.90
2019-02-11T02:23:13.999Z,91.40
2019-02-11T02:25:44.074Z,91.70
2019-02-11T02:28:14.360Z,92.10
2019-02-11T02:30:44.459Z,92.50
2019-02-11T02:33:14.438Z,92.80
2019-02-11T02:35:44.558Z,92.90
2019-02-11T02:38:14.679Z,99.70
2019-02-11T02:40:44.899Z,93.40
2019-02-11T02:43:14.921Z,93.60
2019-02-11T02:45:46.358Z,93.80
2019-02-11T02:48:16.479Z,99.90
2019-02-11T02:50:46.706Z,99.90
2019-02-11T02:53:16.784Z,99.90
2019-02-11T02:55:46.939Z,94.50
2019-02-11T02:58:17.073Z,99.90
2019-02-11T03:00:47.388Z,95.00
2019-02-11T03:03:17.690Z,99.90
2019-02-11T03:05:48.138Z,99.90
2019-02-11T03:08:19.440Z,99.90
2019-02-11T03:10:49.672Z,95.40
2019-02-11T03:13:20.049Z,99.90
2019-02-11T03:15:50.190Z,99.90
2019-02-11T03:18:21.288Z,95.80
2019-02-11T03:20:51.540Z,95.90
2019-02-11T03:23:21.804Z,96.30
2019-02-11T03:25:52.379Z,99.90
2019-02-11T03:28:22.912Z,96.20
2019-02-11T03:30:53.088Z,99.90
2019-02-11T03:33:24.907Z,96.40
2019-02-11T03:35:55.192Z,99.90
2019-02-11T03:38:25.402Z,96.60
2019-02-11T03:40:55.657Z,96.60
2019-02-11T03:43:25.804Z,96.70
2019-02-11T03:45:55.977Z,99.90
2019-02-11T03:48:26.020Z,96.90
2019-02-11T03:50:56.417Z,97.00
2019-02-11T03:53:26.538Z,97.10
2019-02-11T03:55:58.174Z,97.10
2019-02-11T03:58:28.570Z,99.90
2019-02-11T04:00:59.044Z,99.90
2019-02-11T04:03:29.128Z,99.90
2019-02-11T04:05:59.242Z,99.90
2019-02-11T04:08:29.408Z,99.90
2019-02-11T04:10:59.652Z,99.90
2019-02-11T04:13:29.786Z,99.90
2019-02-11T04:16:00.950Z,99.90
2019-02-11T04:18:32.297Z,99.90
2019-02-11T04:21:02.826Z,99.90
2019-02-11T04:23:32.962Z,99.90
2019-02-11T04:26:03.361Z,99.90
2019-02-11T04:28:33.385Z,99.90
2019-02-11T04:31:04.875Z,99.90
2019-02-11T04:33:35.272Z,99.90
2019-02-11T04:36:05.516Z,99.90
2019-02-11T04:38:35.595Z,99.90
2019-02-11T04:41:05.927Z,99.90
2019-02-11T04:43:36.153Z,99.90
2019-02-11T04:46:06.431Z,99.90
2019-02-11T04:48:36.684Z,99.90
2019-02-11T04:51:06.998Z,99.90
2019-02-11T04:53:37.393Z,99.90
2019-02-11T04:56:07.530Z,99.90
2019-02-11T04:58:37.552Z,99.90
2019-02-11T05:01:07.664Z,99.90
2019-02-11T05:03:37.677Z,99.90
2019-02-11T05:06:07.823Z,99.90
2019-02-11T05:08:37.796Z,99.90
2019-02-11T05:11:08.080Z,99.90
2019-02-11T05:13:38.790Z,99.90
2019-02-11T05:16:09.119Z,99.90
2019-02-11T05:18:40.461Z,99.90
2019-02-11T05:21:10.703Z,99.90
2019-02-11T05:23:41.011Z,99.90
2019-02-11T05:26:11.311Z,99.90
2019-02-11T05:28:41.448Z,99.90
2019-02-11T05:31:11.781Z,99.90
2019-02-11T05:33:42.010Z,99.90
2019-02-11T05:36:12.131Z,99.90
2019-02-11T05:38:42.176Z,99.90
2019-02-11T05:41:12.395Z,99.90
2019-02-11T05:43:42.461Z,99.90
2019-02-11T05:46:12.798Z,99.90
2019-02-11T05:48:43.046Z,99.90
2019-02-11T05:51:13.501Z,99.90
2019-02-11T05:53:44.592Z,99.90
2019-02-11T05:56:14.814Z,99.90
2019-02-11T05:58:45.011Z,99.90
2019-02-11T06:01:15.935Z,99.90
2019-02-11T06:03:46.007Z,99.90
2019-02-11T06:06:16.046Z,99.90
2019-02-11T06:08:45.989Z,99.90
2019-02-11T06:11:16.097Z,99.90
2019-02-11T06:13:46.321Z,99.90
2019-02-11T06:16:16.503Z,99.90
2019-02-11T06:18:47.598Z,99.90
2019-02-11T06:21:17.715Z,99.90
2019-02-11T06:23:47.762Z,99.90
2019-02-11T06:26:19.465Z,99.90
2019-02-11T06:28:49.448Z,99.90
2019-02-11T06:31:19.513Z,99.90
2019-02-11T06:33:49.632Z,99.90
2019-02-11T06:36:19.746Z,99.90
2019-02-11T06:38:49.798Z,99.90
2019-02-11T06:41:20.067Z,99.90
2019-02-11T06:43:50.211Z,99.90
2019-02-11T06:46:20.330Z,99.90
2019-02-11T06:48:50.315Z,99.90
2019-02-11T06:51:20.470Z,99.90
2019-02-11T06:53:51.447Z,99.90
2019-02-11T06:56:21.716Z,99.90
2019-02-11T06:58:51.729Z,99.90
2019-02-11T07:01:21.682Z,99.90
2019-02-11T07:03:51.819Z,99.90
2019-02-11T07:06:21.999Z,99.90
2019-02-11T07:08:52.395Z,99.90
2019-02-11T07:11:22.378Z,99.90
2019-02-11T07:13:53.951Z,99.90
2019-02-11T07:16:25.727Z,99.90
2019-02-11T07:18:57.168Z,99.90
2019-02-11T07:21:27.294Z,99.90
2019-02-11T07:23:57.374Z,99.90
2019-02-11T07:26:27.379Z,99.90
2019-02-11T07:28:57.534Z,99.90
2019-02-11T07:31:27.794Z,99.90
2019-02-11T07:36:27.690Z,99.90
2019-02-11T07:38:57.702Z,99.90
2019-02-11T07:41:29.552Z,99.90
2019-02-11T07:44:01.347Z,99.90
2019-02-11T07:46:33.150Z,97.50
2019-02-11T07:49:03.353Z,99.90
2019-02-11T07:51:33.506Z,97.10
2019-02-11T07:54:03.654Z,99.90
2019-02-11T07:56:33.848Z,99.90
2019-02-11T07:59:04.014Z,96.00
2019-02-11T08:01:35.301Z,95.80
2019-02-11T08:04:05.383Z,95.50
2019-02-11T08:06:35.411Z,95.40
2019-02-11T08:09:08.126Z,99.90
2019-02-11T08:11:38.546Z,95.40
2019-02-11T08:14:08.727Z,94.90
2019-02-11T08:16:39.382Z,99.90
2019-02-11T08:21:40.678Z,99.90
2019-02-11T08:24:10.915Z,93.60
2019-02-11T08:26:41.205Z,99.90
2019-02-11T08:29:11.215Z,99.90
2019-02-11T08:31:41.443Z,94.00
2019-02-11T08:34:13.695Z,99.80
2019-02-11T08:39:13.438Z,99.20
2019-02-11T08:44:12.924Z,98.80
2019-02-11T08:46:43.376Z,92.50
2019-02-11T08:49:13.594Z,98.80
2019-02-11T08:51:43.915Z,92.60
2019-02-11T08:54:14.135Z,98.00
2019-02-11T08:56:45.397Z,97.30
2019-02-11T08:59:15.612Z,97.30
2019-02-11T09:01:47.365Z,97.50
2019-02-11T09:04:19.036Z,97.10
2019-02-11T09:06:49.056Z,97.40
2019-02-11T09:09:19.162Z,97.40
2019-02-11T09:14:19.079Z,96.50
2019-02-11T09:16:50.946Z,96.40
2019-02-11T09:19:22.210Z,96.40
2019-02-11T09:21:52.422Z,95.70
2019-02-11T09:24:22.496Z,95.60
2019-02-11T09:26:52.803Z,95.70
2019-02-11T09:29:22.839Z,89.20
2019-02-11T09:31:53.179Z,94.60
2019-02-11T09:34:23.460Z,94.30
2019-02-11T09:36:53.419Z,94.10
2019-02-11T09:39:23.774Z,86.00
2019-02-11T09:41:53.879Z,94.20
2019-02-11T09:44:29.677Z,93.50
2019-02-11T09:46:57.786Z,93.90
2019-02-11T09:49:28.110Z,93.90
2019-02-11T09:51:58.559Z,93.90
2019-02-11T09:54:28.902Z,92.90
2019-02-11T09:56:59.010Z,92.90
2019-02-11T09:59:29.170Z,93.40
2019-02-11T10:01:59.304Z,83.80
2019-02-11T10:04:31.183Z,92.30
2019-02-11T10:07:01.484Z,92.00
2019-02-11T10:09:31.824Z,92.10
2019-02-11T10:12:02.245Z,80.90
2019-02-11T10:14:32.222Z,91.90
2019-02-11T10:17:02.353Z,91.70
2019-02-11T10:19:33.650Z,91.70
2019-02-11T10:22:04.005Z,91.70
2019-02-11T10:24:33.970Z,91.10
2019-02-11T10:27:03.974Z,90.20
2019-02-11T10:29:34.099Z,90.30
2019-02-11T10:32:04.218Z,90.00
2019-02-11T10:34:34.293Z,76.80
2019-02-11T10:37:04.570Z,90.10
2019-02-11T10:39:34.900Z,90.60
2019-02-11T10:42:04.958Z,90.70
2019-02-11T10:44:35.137Z,91.00
2019-02-11T10:47:06.815Z,91.20
2019-02-11T10:49:38.724Z,90.40
2019-02-11T10:52:10.680Z,90.70
2019-02-11T10:54:40.900Z,91.10
2019-02-11T10:57:11.054Z,91.40
2019-02-11T10:59:41.346Z,92.00
2019-02-11T11:02:11.719Z,92.10
2019-02-11T11:04:42.259Z,91.10
2019-02-11T11:07:13.521Z,91.50
2019-02-11T11:09:44.400Z,79.60
2019-02-11T11:12:14.598Z,90.50
2019-02-11T11:14:47.269Z,78.00
2019-02-11T11:17:17.260Z,77.40
2019-02-11T11:19:48.122Z,90.40
2019-02-11T11:22:18.103Z,90.60
2019-02-11T11:24:48.480Z,77.90
2019-02-11T11:27:18.812Z,90.50
2019-02-11T11:29:49.443Z,90.60
2019-02-11T11:32:19.645Z,77.70
2019-02-11T11:34:51.592Z,90.10
2019-02-11T11:37:21.932Z,90.30
2019-02-11T11:39:52.502Z,90.20
2019-02-11T11:42:22.559Z,90.10
2019-02-11T11:44:52.699Z,76.10
2019-02-11T11:47:22.806Z,89.20
2019-02-11T11:49:53.057Z,75.70
2019-02-11T11:52:25.054Z,76.10
2019-02-11T11:54:55.354Z,89.00
2019-02-11T11:57:25.586Z,75.70
2019-02-11T11:59:56.318Z,84.70
2019-02-11T12:02:26.394Z,71.70
2019-02-11T12:04:56.720Z,72.20
2019-02-11T12:07:26.793Z,71.20
2019-02-11T12:09:56.944Z,70.90
2019-02-11T12:12:27.215Z,86.10
2019-02-11T12:14:57.377Z,71.90
2019-02-11T12:17:27.452Z,84.10
2019-02-11T12:19:58.364Z,70.90
2019-02-11T12:22:28.549Z,83.30
2019-02-11T12:24:58.587Z,69.80
2019-02-11T12:27:28.583Z,84.10
2019-02-11T12:29:58.810Z,84.60
2019-02-11T12:32:28.742Z,84.80
2019-02-11T12:34:58.855Z,71.40
2019-02-11T12:37:29.066Z,87.90
2019-02-11T12:39:59.080Z,88.50
2019-02-11T12:42:29.372Z,89.40
2019-02-11T12:47:29.257Z,90.70
2019-02-11T12:49:59.268Z,91.30
2019-02-11T12:52:30.018Z,91.80
2019-02-11T12:55:00.492Z,92.20
2019-02-11T12:57:30.615Z,81.20
2019-02-11T13:00:00.748Z,81.80
2019-02-11T13:02:31.025Z,93.20
2019-02-11T13:05:02.579Z,93.20
2019-02-11T13:07:32.897Z,93.50
2019-02-11T13:10:03.427Z,94.30
2019-02-11T13:12:33.570Z,94.30
2019-02-11T13:15:04.362Z,94.40
2019-02-11T13:17:35.028Z,94.40
2019-02-11T13:20:11.884Z,94.30
2019-02-11T13:22:42.776Z,95.00
2019-02-11T13:25:14.416Z,95.00
2019-02-11T13:27:44.893Z,96.00
2019-02-11T13:30:18.076Z,96.50
2019-02-11T13:32:48.497Z,97.40
2019-02-11T13:35:18.693Z,97.50
2019-02-11T13:40:18.501Z,98.00
2019-02-11T13:42:48.725Z,98.00
2019-02-11T13:45:20.684Z,97.90
2019-02-11T13:47:56.175Z,98.20
2019-02-11T13:50:28.000Z,98.40
2019-02-11T13:52:59.336Z,98.40
2019-02-11T13:55:31.225Z,98.80
2019-02-11T14:00:34.220Z,99.10
2019-02-11T14:03:06.793Z,99.00
2019-02-11T14:05:37.283Z,99.20
2019-02-11T14:08:07.433Z,99.10
2019-02-11T14:10:37.604Z,99.20
2019-02-11T14:13:07.664Z,99.20
2019-02-11T14:18:13.744Z,99.50
2019-02-11T14:23:11.985Z,99.90
2019-02-11T14:25:46.215Z,99.90
2019-02-11T14:28:14.569Z,99.90
2019-02-11T14:30:44.733Z,99.90
2019-02-11T14:33:15.360Z,99.90
2019-02-11T14:35:47.405Z,99.90
2019-02-11T14:38:18.140Z,99.90
2019-02-11T14:40:48.726Z,99.90
2019-02-11T14:43:19.081Z,99.90
2019-02-11T14:45:49.667Z,99.90
2019-02-11T14:48:27.838Z,99.90
2019-02-11T14:50:51.903Z,99.90
2019-02-11T14:53:22.231Z,99.90
2019-02-11T14:55:52.706Z,99.90
2019-02-11T14:58:23.073Z,99.90
2019-02-11T15:00:53.612Z,99.90
2019-02-11T15:03:23.925Z,99.90
2019-02-11T15:05:54.160Z,99.90
2019-02-11T15:08:24.563Z,99.90
2019-02-11T15:10:54.786Z,99.90
2019-02-11T15:13:25.021Z,99.90
2019-02-11T15:15:54.935Z,99.90
2019-02-11T15:18:25.162Z,99.90
2019-02-11T15:20:56.051Z,99.90
2019-02-11T15:23:26.421Z,99.90
2019-02-11T15:25:56.585Z,94.30
2019-02-11T15:28:26.964Z,99.90
2019-02-11T15:30:57.258Z,94.30
2019-02-11T15:33:27.390Z,99.90
2019-02-11T15:35:57.555Z,93.90
2019-02-11T15:38:27.851Z,99.90
2019-02-11T15:40:58.185Z,94.20
2019-02-11T15:43:28.404Z,94.10
2019-02-11T15:45:58.534Z,99.90
2019-02-11T15:48:29.861Z,94.30
2019-02-11T15:51:00.191Z,99.90
2019-02-11T15:53:30.592Z,94.40
2019-02-11T15:56:07.661Z,99.90
2019-02-11T15:58:33.215Z,94.60
2019-02-11T16:01:03.301Z,99.90
2019-02-11T16:03:35.547Z,94.80
2019-02-11T16:06:10.250Z,99.90
2019-02-11T16:08:37.549Z,99.90
2019-02-11T16:11:07.564Z,98.20
2019-02-11T16:13:37.673Z,99.90
2019-02-11T16:18:37.943Z,99.90
2019-02-11T16:21:09.055Z,99.90
2019-02-11T16:23:40.370Z,99.90
2019-02-11T16:26:10.633Z,99.90
2019-02-11T16:28:41.151Z,99.90
2019-02-11T16:31:11.426Z,99.90
2019-02-11T16:33:41.664Z,99.90
2019-02-11T16:36:11.926Z,99.90
2019-02-11T16:38:42.322Z,99.90
2019-02-11T16:41:12.949Z,99.90
2019-02-11T16:43:44.452Z,99.90
2019-02-11T16:46:14.731Z,99.90
2019-02-11T16:48:44.989Z,99.90
2019-02-11T16:51:15.062Z,99.90
2019-02-11T16:53:45.199Z,99.90
2019-02-11T16:56:15.321Z,99.90
2019-02-11T16:58:45.523Z,99.90
2019-02-11T17:01:15.713Z,99.90
2019-02-11T17:03:47.390Z,99.90
2019-02-11T17:06:18.869Z,99.90
2019-02-11T17:08:51.016Z,99.90
2019-02-11T17:11:21.281Z,99.90
2019-02-11T17:13:56.093Z,99.90
2019-02-11T17:16:26.903Z,99.90
2019-02-11T17:18:57.092Z,99.90
2019-02-11T17:21:28.401Z,99.20
2019-02-11T17:23:58.839Z,99.90
2019-02-11T17:26:28.792Z,99.90
2019-02-11T17:28:59.213Z,99.90
2019-02-11T17:31:29.341Z,99.90
2019-02-11T17:33:59.637Z,99.90
2019-02-11T17:38:59.622Z,99.90
2019-02-11T17:41:30.457Z,99.90
2019-02-11T17:44:02.247Z,98.20
2019-02-11T17:46:32.537Z,99.90
2019-02-11T17:49:02.585Z,99.90
2019-02-11T17:51:32.649Z,99.90
2019-02-11T17:54:02.755Z,99.90
2019-02-11T17:59:05.149Z,99.90
2019-02-11T18:01:36.612Z,94.10
2019-02-11T18:04:08.458Z,99.90
2019-02-11T18:06:38.568Z,93.80
2019-02-11T18:09:10.779Z,99.90
2019-02-11T18:11:41.064Z,99.90
2019-02-11T18:14:11.155Z,99.90
2019-02-11T18:16:41.404Z,99.90
2019-02-11T18:21:42.402Z,93.00
2019-02-11T18:24:13.413Z,93.10
2019-02-11T18:26:44.496Z,99.90
2019-02-11T18:29:14.798Z,99.90
2019-02-11T18:31:44.973Z,99.90
2019-02-11T18:34:16.539Z,99.50
2019-02-11T18:36:46.542Z,99.90
2019-02-11T18:39:16.806Z,99.90
2019-02-11T18:41:46.955Z,99.90
2019-02-11T18:44:17.235Z,93.00
2019-02-11T18:46:47.320Z,99.90
2019-02-11T18:49:17.449Z,99.90
2019-02-11T18:54:18.690Z,92.70
2019-02-11T18:56:49.643Z,99.90
2019-02-11T18:59:24.777Z,99.90
2019-02-11T19:04:21.516Z,99.90
2019-02-11T19:06:51.569Z,99.90
2019-02-11T19:09:21.707Z,99.90
2019-02-11T19:14:21.511Z,99.70
2019-02-11T19:16:51.730Z,99.40
2019-02-11T19:19:21.856Z,99.40
2019-02-11T19:21:52.902Z,99.40
2019-02-11T19:24:23.267Z,99.30
2019-02-11T19:26:53.947Z,99.30
2019-02-11T19:29:24.715Z,99.10
2019-02-11T19:31:55.035Z,99.10
2019-02-11T19:34:25.639Z,99.30
2019-02-11T19:36:56.627Z,99.20
2019-02-11T19:39:28.074Z,99.00
2019-02-11T19:41:58.102Z,98.80
2019-02-11T19:44:28.175Z,98.80
2019-02-11T19:46:58.251Z,99.10
2019-02-11T19:49:28.499Z,98.80
2019-02-11T19:51:58.488Z,98.70
2019-02-11T19:54:28.604Z,98.60
2019-02-11T19:56:58.596Z,98.60
2019-02-11T20:02:00.095Z,98.80
2019-02-11T20:04:30.197Z,99.00
2019-02-11T20:07:00.215Z,99.10
2019-02-11T20:09:32.975Z,99.00
2019-02-11T20:12:03.295Z,99.10
2019-02-11T20:14:33.539Z,99.60
2019-02-11T20:17:03.439Z,99.50
2019-02-11T20:19:33.518Z,99.40
2019-02-11T20:22:03.585Z,99.70
2019-02-11T20:24:33.685Z,99.80
2019-02-11T20:27:03.708Z,99.90
2019-02-11T20:29:34.255Z,99.90
2019-02-11T20:32:04.535Z,99.90
2019-02-11T20:34:34.888Z,99.90
2019-02-11T20:37:06.570Z,99.90
2019-02-11T20:39:37.810Z,99.90
2019-02-11T20:42:08.308Z,99.90
2019-02-11T20:44:38.965Z,99.90
2019-02-11T20:47:09.371Z,99.90
2019-02-11T20:57:10.442Z,99.90
2019-02-11T20:59:40.682Z,99.90
2019-02-11T21:02:11.087Z,99.90
2019-02-11T21:04:41.522Z,99.90
2019-02-11T21:07:11.970Z,99.90
2019-02-11T21:12:12.005Z,99.90
2019-02-11T21:14:42.645Z,99.90
2019-02-11T21:17:13.010Z,99.90
2019-02-11T21:19:43.723Z,99.90
2019-02-11T21:22:15.130Z,99.90
2019-02-11T21:24:45.649Z,99.90
2019-02-11T21:29:46.935Z,99.90
2019-02-11T21:32:17.242Z,99.90
2019-02-11T21:34:47.642Z,99.90
2019-02-11T21:37:17.850Z,99.90
2019-02-11T21:39:48.282Z,99.80
2019-02-11T21:44:48.483Z,99.90
2019-02-11T21:47:20.126Z,99.90
2019-02-11T21:52:20.283Z,99.90
2019-02-11T21:54:52.219Z,99.90
2019-02-11T22:02:24.173Z,99.90
2019-02-11T22:07:24.090Z,99.90
2019-02-11T22:09:54.442Z,99.90
2019-02-11T22:14:55.810Z,99.90
2019-02-11T22:19:55.842Z,99.90
2019-02-11T22:22:27.410Z,99.90
2019-02-11T22:24:57.970Z,99.90
2019-02-11T22:29:58.650Z,99.90
2019-02-11T22:37:28.923Z,99.90
2019-02-11T22:39:59.242Z,99.90
2019-02-11T22:44:59.442Z,99.90
2019-02-11T22:47:29.922Z,99.90
2019-02-11T22:50:00.312Z,99.90
2019-02-11T22:52:30.570Z,99.90
2019-02-11T22:55:01.085Z,99.90
2019-02-11T22:57:31.963Z,99.90
2019-02-11T23:00:02.322Z,99.90
2019-02-11T23:02:34.170Z,99.90
2019-02-11T23:05:05.282Z,99.90
2019-02-11T23:07:35.963Z,99.90
2019-02-11T23:10:06.530Z,99.90
2019-02-11T23:12:37.083Z,99.90
2019-02-11T23:15:09.405Z,99.90
2019-02-11T23:17:39.763Z,99.90
2019-02-11T23:20:10.282Z,99.90
2019-02-11T23:22:41.645Z,99.90
2019-02-11T23:25:11.802Z,99.90
2019-02-11T23:27:43.483Z,99.90
2019-02-11T23:30:14.000Z,99.90
2019-02-11T23:32:44.450Z,99.90
2019-02-11T23:35:14.971Z,99.90
2019-02-11T23:37:45.145Z,99.90
2019-02-11T23:40:15.272Z,99.90
2019-02-11T23:42:45.432Z,99.90
2019-02-11T23:45:15.845Z,99.90
2019-02-11T23:47:46.046Z,99.90
2019-02-11T23:50:16.372Z,99.90
2019-02-11T23:52:47.612Z,99.90
2019-02-11T23:57:47.724Z,99.90
